Time;durP1;ratioP1;P1;durP2;ratioP2;P2;SDS_P1;SDS_P2;PMS_P1;PMS_P2;Temp;Humidity;BMP_temperature;BMP_pressure;BME280_temperature;BME280_humidity;BME280_pressure;Samples;Min_cycle;Max_cycle;Signal;HPM_P1;HPM_P2
2022/12/20 00:01:26;;;;;;;6.40;2.30;;;;;;;8.04;100.00;98066.00;5056057;28;20048;-70
2022/12/20 00:03:56;;;;;;;5.07;2.17;;;;;;;8.04;100.00;98071.19;5057054;28;20052;-70
2022/12/20 00:06:24;;;;;;;5.25;2.20;;;;;;;7.93;100.00;98061.09;5054665;28;20048;-70
2022/12/20 00:08:56;;;;;;;6.50;2.60;;;;;;;8.05;100.00;98062.53;5054553;28;20080;-70
2022/12/20 00:11:24;;;;;;;5.80;2.70;;;;;;;7.98;100.00;98067.00;5055759;28;20052;-71
2022/12/20 00:13:52;;;;;;;5.75;2.40;;;;;;;8.15;100.00;98056.25;5045503;28;20056;-70
2022/12/20 00:16:21;;;;;;;6.38;2.92;;;;;;;8.11;100.00;98054.63;5053721;28;20048;-70
2022/12/20 00:18:54;;;;;;;5.07;2.30;;;;;;;8.26;100.00;98056.00;5053824;28;20537;-70
2022/12/20 00:21:21;;;;;;;6.18;2.53;;;;;;;8.34;100.00;98048.88;5053761;28;20053;-70
2022/12/20 00:23:50;;;;;;;4.53;2.25;;;;;;;8.22;100.00;98054.34;5055708;28;20470;-70
2022/12/20 00:26:19;;;;;;;6.00;2.38;;;;;;;8.17;100.00;98039.81;5055949;28;20060;-70
2022/12/20 00:28:47;;;;;;;5.28;2.03;;;;;;;8.24;100.00;98035.31;5058200;28;20072;-70
2022/12/20 00:31:16;;;;;;;6.32;2.80;;;;;;;7.99;100.00;98026.50;5051672;28;20162;-70
2022/12/20 00:33:49;;;;;;;4.55;2.30;;;;;;;8.04;100.00;98035.81;5055303;28;20064;-70
2022/12/20 00:36:17;;;;;;;6.00;2.72;;;;;;;8.08;100.00;98031.44;5059683;28;20400;-70
2022/12/20 00:38:49;;;;;;;4.97;2.63;;;;;;;8.20;100.00;98035.44;5054453;28;20059;-71
2022/12/20 00:41:19;;;;;;;6.43;3.03;;;;;;;8.03;100.00;98031.56;5055665;28;20403;-70
2022/12/20 00:43:47;;;;;;;7.00;2.53;;;;;;;7.95;100.00;98020.53;5056624;28;20060;-70
2022/12/20 00:46:15;;;;;;;3.97;2.10;;;;;;;7.82;100.00;98030.31;5055450;28;20044;-70
2022/12/20 00:48:43;;;;;;;5.60;2.17;;;;;;;7.75;100.00;98033.94;5058440;28;20060;-70
2022/12/20 00:51:13;;;;;;;5.10;2.38;;;;;;;7.86;100.00;98028.53;5056581;28;20056;-70
2022/12/20 00:53:41;;;;;;;4.78;2.13;;;;;;;7.78;100.00;98030.44;5055609;28;20135;-70
2022/12/20 00:56:09;;;;;;;5.32;2.72;;;;;;;7.80;100.00;98036.41;5053641;28;20127;-70
2022/12/20 00:58:38;;;;;;;4.68;1.77;;;;;;;8.00;100.00;98043.69;5056861;28;20144;-70
2022/12/20 01:01:13;;;;;;;5.00;2.13;;;;;;;7.81;100.00;98033.81;5054593;28;20067;-70
2022/12/20 01:03:41;;;;;;;5.68;2.20;;;;;;;7.87;100.00;98030.25;5058665;28;20048;-70
2022/12/20 01:06:09;;;;;;;6.57;2.30;;;;;;;7.92;100.00;98044.75;5057263;28;20469;-70
2022/12/20 01:08:37;;;;;;;5.50;2.20;;;;;;;7.93;100.00;98040.41;5054099;28;20144;-70
2022/12/20 01:11:16;;;;;;;4.45;2.35;;;;;;;7.86;100.00;98037.13;5056602;28;20049;-70
2022/12/20 01:13:47;;;;;;;4.50;2.42;;;;;;;7.83;100.00;98032.03;5054499;28;20106;-71
2022/12/20 01:16:21;;;;;;;5.25;2.20;;;;;;;7.77;100.00;98027.00;5058299;28;20057;-71
2022/12/20 01:18:49;;;;;;;6.10;2.20;;;;;;;7.84;100.00;98027.72;5062294;28;20103;-70
2022/12/20 01:21:17;;;;;;;6.18;2.55;;;;;;;7.74;100.00;98019.34;5050817;28;20118;-70
2022/12/20 01:23:45;;;;;;;6.53;2.85;;;;;;;7.83;100.00;98016.53;5056862;28;20048;-70
2022/12/20 01:26:16;;;;;;;4.72;2.10;;;;;;;7.89;100.00;98012.94;5055348;28;20057;-71
2022/12/20 01:28:45;;;;;;;4.72;2.17;;;;;;;7.97;100.00;98006.69;5054310;28;20052;-70
2022/12/20 01:31:15;;;;;;;5.85;2.30;;;;;;;8.19;100.00;98008.75;5058509;28;20052;-70
2022/12/20 01:33:43;;;;;;;7.35;2.50;;;;;;;8.07;100.00;98009.88;5053805;28;20056;-70
2022/12/20 01:36:13;;;;;;;8.43;3.10;;;;;;;8.03;100.00;98007.41;5051467;28;20144;-70
2022/12/20 01:38:41;;;;;;;4.13;1.85;;;;;;;8.16;100.00;98009.69;5054281;28;20078;-70
2022/12/20 01:41:15;;;;;;;4.57;1.92;;;;;;;8.20;100.00;98010.44;5054290;28;20099;-70
2022/12/20 01:43:49;;;;;;;4.63;1.67;;;;;;;8.20;100.00;98002.66;5056404;28;20123;-70
2022/12/20 01:46:17;;;;;;;4.15;1.70;;;;;;;8.41;100.00;97990.09;5054552;28;20053;-70
2022/12/20 01:49:09;;;;;;;4.10;2.08;;;;;;;8.45;100.00;97984.78;5055434;28;20139;-70
2022/12/20 01:51:45;;;;;;;4.67;2.10;;;;;;;8.29;100.00;97976.56;5054283;28;20405;-70
2022/12/20 01:54:24;;;;;;;5.97;1.90;;;;;;;8.33;100.00;97977.34;5048392;28;20041;-70
2022/12/20 01:57:01;;;;;;;6.78;2.10;;;;;;;8.20;100.00;97974.22;5051982;28;20051;-70
2022/12/20 01:59:29;;;;;;;4.47;1.80;;;;;;;8.27;100.00;97980.09;5051005;28;20099;-70
2022/12/20 02:01:58;;;;;;;6.70;1.98;;;;;;;8.16;100.00;97973.47;5056938;28;20419;-70
2022/12/20 02:04:26;;;;;;;4.25;2.50;;;;;;;8.13;100.00;97973.53;5053002;28;20439;-70
2022/12/20 02:06:53;;;;;;;6.97;2.35;;;;;;;7.98;100.00;97968.75;5054923;28;20054;-70
2022/12/20 02:09:21;;;;;;;3.97;1.95;;;;;;;7.95;100.00;97972.28;5056369;28;20807;-70
2022/12/20 02:12:08;;;;;;;6.75;2.28;;;;;;;7.80;100.00;97972.69;5052999;28;20045;-70
2022/12/20 02:14:54;;;;;;;4.18;2.03;;;;;;;7.90;100.00;97961.22;5040629;28;20418;-70
2022/12/20 02:17:40;;;;;;;5.65;2.35;;;;;;;7.71;100.00;97967.75;5055987;28;20068;-70
2022/12/20 02:20:38;;;;;;;5.50;2.33;;;;;;;7.74;100.00;97957.31;5053711;28;20057;-70
2022/12/20 02:23:32;;;;;;;6.00;2.45;;;;;;;7.74;100.00;97960.75;5051183;28;20390;-71
2022/12/20 02:26:29;;;;;;;5.72;2.08;;;;;;;7.63;100.00;97977.41;5048882;28;20055;-70
2022/12/20 02:29:34;;;;;;;6.47;2.35;;;;;;;7.73;100.00;97976.28;5053710;28;20056;-70
2022/12/20 02:32:04;;;;;;;5.60;2.30;;;;;;;7.67;100.00;97971.28;5051254;28;20045;-70
2022/12/20 02:34:34;;;;;;;4.05;2.30;;;;;;;7.74;100.00;97985.75;5052751;28;20045;-71
2022/12/20 02:37:02;;;;;;;6.63;2.60;;;;;;;7.90;100.00;97973.28;5055312;28;20099;-70
2022/12/20 02:39:30;;;;;;;4.95;2.63;;;;;;;7.81;100.00;97970.94;5055029;28;20388;-71
2022/12/20 02:42:05;;;;;;;6.35;2.90;;;;;;;7.74;100.00;97973.69;5055304;28;20064;-70
2022/12/20 02:47:27;;;;;;;6.43;2.72;;;;;;;7.80;100.00;97964.94;5052886;28;20044;-70
2022/12/20 02:49:55;;;;;;;4.43;2.47;;;;;;;7.67;100.00;97961.81;5050647;28;20052;-71
2022/12/20 02:52:25;;;;;;;4.32;2.33;;;;;;;7.71;100.00;97963.44;5050933;28;20094;-70
2022/12/20 02:54:54;;;;;;;8.35;3.05;;;;;;;7.75;100.00;97959.00;5051327;28;20254;-70
2022/12/20 02:57:46;;;;;;;4.63;2.63;;;;;;;7.68;100.00;97953.16;5050020;28;20052;-70
2022/12/20 03:00:17;;;;;;;6.05;2.83;;;;;;;7.82;100.00;97945.03;5054896;28;20111;-71
2022/12/20 03:05:34;;;;;;;6.90;3.35;;;;;;;7.81;100.00;97945.09;5056253;28;20061;-71
2022/12/20 03:08:01;;;;;;;5.13;2.50;;;;;;;7.84;100.00;97939.84;5051807;28;20079;-71
2022/12/20 03:10:29;;;;;;;5.35;2.40;;;;;;;7.94;100.00;97938.72;5053169;28;20050;-70
2022/12/20 03:12:56;;;;;;;5.35;3.00;;;;;;;7.96;100.00;97930.03;5052569;28;20056;-70
2022/12/20 03:15:23;;;;;;;4.75;2.67;;;;;;;7.97;100.00;97923.13;5054392;28;20048;-71
2022/12/20 03:17:51;;;;;;;4.47;2.50;;;;;;;7.94;100.00;97908.56;5047137;28;20156;-70
2022/12/20 03:20:18;;;;;;;7.38;2.58;;;;;;;8.09;100.00;97909.03;5053840;28;20044;-70
2022/12/20 03:22:45;;;;;;;6.72;3.03;;;;;;;8.03;100.00;97902.28;5052497;28;20134;-70
2022/12/20 03:25:12;;;;;;;5.93;2.72;;;;;;;8.12;100.00;97896.03;5052917;28;20794;-70
2022/12/20 03:27:40;;;;;;;5.70;2.80;;;;;;;8.19;100.00;97900.13;5056415;28;20127;-70
2022/12/20 03:30:08;;;;;;;5.40;2.90;;;;;;;8.19;100.00;97907.91;5051181;28;20052;-70
2022/12/20 03:32:38;;;;;;;6.38;2.70;;;;;;;8.37;100.00;97903.94;5054039;28;20061;-70
2022/12/20 03:35:07;;;;;;;6.25;2.67;;;;;;;8.35;100.00;97895.38;5057024;28;20072;-70
2022/12/20 03:37:36;;;;;;;4.00;2.10;;;;;;;8.21;100.00;97890.59;5052810;28;20056;-70
2022/12/20 03:40:05;;;;;;;5.20;2.47;;;;;;;8.24;100.00;97895.69;5057031;28;20062;-70
2022/12/20 03:42:33;;;;;;;5.90;2.42;;;;;;;8.20;100.00;97900.97;5054460;28;20664;-70
2022/12/20 03:45:02;;;;;;;7.55;2.70;;;;;;;8.12;100.00;97893.44;5045728;28;20136;-70
2022/12/20 03:47:30;;;;;;;6.07;2.72;;;;;;;7.97;100.00;97898.13;5057124;28;20045;-71
2022/12/20 03:49:58;;;;;;;5.35;2.58;;;;;;;8.03;100.00;97898.84;5056479;28;20570;-70
2022/12/20 03:52:27;;;;;;;6.10;2.40;;;;;;;7.92;100.00;97894.81;5052039;28;20102;-70
2022/12/20 03:54:55;;;;;;;5.28;2.38;;;;;;;8.06;100.00;97903.94;5058305;28;20231;-70
2022/12/20 03:57:23;;;;;;;5.47;2.40;;;;;;;7.94;100.00;97900.81;5055166;28;20455;-70
2022/12/20 03:59:53;;;;;;;6.93;2.42;;;;;;;8.07;100.00;97888.38;5060256;28;20052;-71
2022/12/20 04:02:21;;;;;;;5.97;2.13;;;;;;;8.08;100.00;97897.00;5074105;28;20681;-71
2022/12/20 04:04:50;;;;;;;5.43;1.80;;;;;;;7.99;100.00;97892.91;5055850;28;20086;-70
2022/12/20 04:07:18;;;;;;;6.70;2.10;;;;;;;8.02;100.00;97899.75;5055644;28;20045;-70
2022/12/20 04:09:46;;;;;;;6.32;2.13;;;;;;;8.02;100.00;97895.41;5053640;28;20510;-70
2022/12/20 04:12:14;;;;;;;9.60;2.50;;;;;;;8.08;100.00;97890.09;5058044;28;20053;-70
2022/12/20 04:14:42;;;;;;;8.25;2.40;;;;;;;8.11;100.00;97890.00;5055853;28;20055;-70
2022/12/20 04:17:10;;;;;;;5.53;1.70;;;;;;;8.22;100.00;97887.13;5057590;28;20533;-70
2022/12/20 04:19:38;;;;;;;4.35;2.03;;;;;;;8.12;100.00;97891.69;5057766;28;20056;-70
2022/12/20 04:22:06;;;;;;;5.65;1.90;;;;;;;8.32;100.00;97904.06;5059374;28;20053;-70
2022/12/20 04:24:34;;;;;;;5.28;2.25;;;;;;;8.26;100.00;97895.66;5059200;28;20548;-69
2022/12/20 04:27:02;;;;;;;3.90;1.85;;;;;;;8.39;100.00;97891.78;5056914;28;20132;-70
2022/12/20 04:29:30;;;;;;;4.10;2.20;;;;;;;8.29;100.00;97891.22;5056423;28;20508;-70
2022/12/20 04:31:58;;;;;;;4.85;1.52;;;;;;;8.66;100.00;97895.34;5055468;28;20052;-70
2022/12/20 04:34:26;;;;;;;5.53;1.55;;;;;;;8.52;100.00;97881.97;5054996;28;20060;-70
2022/12/20 04:36:54;;;;;;;6.60;1.80;;;;;;;8.52;100.00;97893.16;5055824;28;20749;-70
2022/12/20 04:39:22;;;;;;;5.28;2.03;;;;;;;8.59;100.00;97884.34;5055198;28;20071;-70
2022/12/20 04:41:50;;;;;;;4.55;1.98;;;;;;;8.52;100.00;97879.41;5058298;28;20048;-70
2022/12/20 04:44:18;;;;;;;4.88;1.80;;;;;;;8.62;100.00;97890.31;5056208;28;20126;-70
2022/12/20 04:46:47;;;;;;;3.47;1.95;;;;;;;8.56;100.00;97886.19;5051450;28;20048;-70
2022/12/20 04:49:15;;;;;;;6.93;2.15;;;;;;;8.33;100.00;97872.13;5056844;28;20052;-70
2022/12/20 04:51:43;;;;;;;5.55;1.90;;;;;;;8.57;100.00;97887.84;5054960;28;20044;-70
2022/12/20 04:54:11;;;;;;;3.35;1.60;;;;;;;8.43;100.00;97884.84;5057617;28;20059;-71
2022/12/20 04:56:40;;;;;;;6.05;2.38;;;;;;;8.48;100.00;97878.63;5055786;28;20067;-71
2022/12/20 04:59:09;;;;;;;5.82;2.40;;;;;;;8.47;100.00;97876.09;5057856;28;20048;-71
2022/12/20 05:01:38;;;;;;;5.75;1.85;;;;;;;8.43;100.00;97882.25;5059023;28;20063;-70
2022/12/20 05:04:06;;;;;;;6.63;2.40;;;;;;;8.49;100.00;97882.09;5055567;28;20084;-70
2022/12/20 05:06:34;;;;;;;4.57;1.92;;;;;;;8.38;100.00;97880.59;5059234;28;20130;-70
2022/12/20 05:09:02;;;;;;;5.00;1.73;;;;;;;8.47;100.00;97871.78;5055259;28;20086;-71
2022/12/20 05:11:30;;;;;;;4.38;1.80;;;;;;;8.38;100.00;97862.50;5060031;28;20048;-70
2022/12/20 05:13:59;;;;;;;5.60;2.05;;;;;;;8.34;100.00;97857.47;5056171;28;20055;-70
2022/12/20 05:16:27;;;;;;;4.20;1.73;;;;;;;8.41;100.00;97856.41;5059472;28;20131;-70
2022/12/20 05:18:55;;;;;;;4.80;2.08;;;;;;;8.40;100.00;97861.63;5057154;28;20498;-70
2022/12/20 05:26:57;;;;;;;5.25;1.92;;;;;;;8.50;100.00;97852.72;5055948;28;20052;-70
2022/12/20 05:29:26;;;;;;;5.82;1.63;;;;;;;8.70;100.00;97867.66;5057073;28;20048;-71
2022/12/20 05:31:54;;;;;;;5.25;2.00;;;;;;;8.70;100.00;97857.31;5057868;28;20049;-71
2022/12/20 05:34:23;;;;;;;8.98;2.13;;;;;;;8.80;100.00;97850.94;5054506;28;20573;-70
2022/12/20 05:36:51;;;;;;;5.72;1.73;;;;;;;8.81;100.00;97852.66;5058532;28;20053;-71
2022/12/20 05:39:19;;;;;;;4.10;1.80;;;;;;;8.69;100.00;97842.66;5054915;28;20048;-70
2022/12/20 05:41:47;;;;;;;4.80;1.60;;;;;;;8.76;100.00;97841.59;5051564;28;20064;-70
2022/12/20 05:44:16;;;;;;;5.65;1.77;;;;;;;8.74;100.00;97845.97;5054372;28;20049;-71
2022/12/20 05:46:44;;;;;;;6.47;1.90;;;;;;;8.88;100.00;97840.34;5054340;28;20238;-71
2022/12/20 05:49:12;;;;;;;4.50;1.98;;;;;;;8.95;100.00;97844.44;5048813;28;20503;-71
2022/12/20 05:51:40;;;;;;;5.25;1.95;;;;;;;8.95;100.00;97834.94;5047303;28;20064;-71
2022/12/20 05:54:09;;;;;;;5.85;2.15;;;;;;;9.05;100.00;97821.69;5048080;28;20494;-70
2022/12/20 05:56:37;;;;;;;5.82;1.50;;;;;;;9.07;100.00;97815.56;5054120;28;20049;-71
2022/12/20 05:59:05;;;;;;;6.68;1.88;;;;;;;9.05;100.00;97812.16;5055771;28;20452;-71
2022/12/20 06:01:33;;;;;;;6.68;1.88;;;;;;;9.06;100.00;97813.03;5056152;28;20044;-70
2022/12/20 06:04:01;;;;;;;3.03;1.52;;;;;;;9.15;100.00;97794.59;5049965;28;20464;-71
2022/12/20 06:06:30;;;;;;;5.38;1.92;;;;;;;9.14;100.00;97811.84;5053795;28;20041;-70
2022/12/20 06:08:58;;;;;;;4.20;1.73;;;;;;;9.17;100.00;97806.59;5054065;28;20060;-71
2022/12/20 06:11:26;;;;;;;3.97;1.95;;;;;;;9.12;100.00;97818.88;5054115;28;20514;-71
2022/12/20 06:13:58;;;;;;;4.68;2.15;;;;;;;9.03;100.00;97824.31;5054317;28;20053;-70
2022/12/20 06:16:26;;;;;;;8.65;2.28;;;;;;;9.04;100.00;97823.44;5054182;28;20049;-70
2022/12/20 06:18:55;;;;;;;7.20;1.83;;;;;;;8.99;100.00;97827.91;5050579;28;20107;-70
2022/12/20 06:21:24;;;;;;;4.88;1.70;;;;;;;9.04;100.00;97826.03;5057766;28;20490;-70
2022/12/20 06:23:52;;;;;;;5.80;1.92;;;;;;;9.12;100.00;97825.75;5055889;28;20053;-70
2022/12/20 06:26:22;;;;;;;5.90;2.10;;;;;;;8.99;100.00;97818.41;5052773;28;20135;-70
2022/12/20 06:28:53;;;;;;;5.28;2.03;;;;;;;9.06;100.00;97821.63;5057459;28;20070;-70
2022/12/20 06:31:21;;;;;;;5.93;1.88;;;;;;;9.00;100.00;97827.00;5051455;28;20427;-70
2022/12/20 06:33:49;;;;;;;5.18;1.45;;;;;;;8.90;100.00;97833.38;5053035;28;20063;-70
2022/12/20 06:36:18;;;;;;;5.00;1.65;;;;;;;8.91;100.00;97828.16;5057846;28;20059;-70
2022/12/20 06:38:46;;;;;;;5.75;2.30;;;;;;;8.83;100.00;97824.13;5058160;28;20259;-71
2022/12/20 06:41:14;;;;;;;6.35;2.42;;;;;;;8.83;100.00;97830.16;5054419;28;20059;-70
2022/12/20 06:43:43;;;;;;;5.70;2.17;;;;;;;8.83;100.00;97830.16;5057414;28;20402;-70
2022/12/20 06:46:11;;;;;;;5.45;1.90;;;;;;;8.66;100.00;97830.66;5051925;28;20056;-70
2022/12/20 06:48:39;;;;;;;4.07;2.20;;;;;;;8.61;100.00;97840.31;5055622;28;20061;-70
2022/12/20 06:51:08;;;;;;;4.88;2.00;;;;;;;8.53;100.00;97837.97;5054444;28;20054;-70
2022/12/20 06:53:37;;;;;;;4.93;2.33;;;;;;;8.52;100.00;97835.41;5052717;28;20095;-71
2022/12/20 06:56:05;;;;;;;6.32;2.28;;;;;;;8.35;100.00;97830.72;5054657;28;20044;-70
2022/12/20 06:58:33;;;;;;;5.95;2.00;;;;;;;8.27;100.00;97822.31;5057505;28;20843;-70
2022/12/20 07:01:01;;;;;;;4.72;2.05;;;;;;;8.16;100.00;97820.03;5052959;28;20053;-70
2022/12/20 07:03:29;;;;;;;4.85;2.17;;;;;;;8.13;100.00;97827.91;5054233;28;20702;-71
2022/12/20 07:05:58;;;;;;;8.38;2.20;;;;;;;8.08;100.00;97834.94;5038655;28;20415;-73
2022/12/20 07:08:26;;;;;;;5.40;2.35;;;;;;;8.02;100.00;97845.47;5055510;28;20131;-70
2022/12/20 07:10:55;;;;;;;6.55;2.33;;;;;;;8.09;100.00;97834.88;5055299;28;20122;-71
2022/12/20 07:13:23;;;;;;;6.97;2.70;;;;;;;8.07;100.00;97839.25;5055325;28;20095;-71
2022/12/20 07:15:59;;;;;;;5.93;2.20;;;;;;;8.12;100.00;97847.75;5052431;28;20048;-71
2022/12/20 07:18:28;;;;;;;5.93;2.00;;;;;;;8.20;100.00;97850.09;5051210;28;20057;-71
2022/12/20 07:21:00;;;;;;;4.45;2.30;;;;;;;8.23;100.00;97847.41;5056939;28;20067;-71
2022/12/20 07:23:29;;;;;;;6.40;1.75;;;;;;;8.23;100.00;97836.22;5054484;28;20131;-70
2022/12/20 07:25:58;;;;;;;5.25;2.15;;;;;;;8.28;100.00;97830.06;5054937;28;20055;-71
2022/12/20 07:28:27;;;;;;;4.80;2.05;;;;;;;8.34;100.00;97836.78;5055329;28;20542;-70
2022/12/20 07:30:59;;;;;;;5.10;2.58;;;;;;;8.29;100.00;97826.56;5054910;28;20071;-71
2022/12/20 07:33:27;;;;;;;5.53;1.95;;;;;;;8.37;100.00;97832.38;5055743;28;20044;-71
2022/12/20 07:36:03;;;;;;;4.82;2.00;;;;;;;8.38;100.00;97839.22;5055893;28;20055;-71
2022/12/20 07:38:32;;;;;;;4.63;2.13;;;;;;;8.36;100.00;97832.41;5049379;28;20057;-71
2022/12/20 07:41:05;;;;;;;4.78;2.05;;;;;;;8.28;100.00;97816.25;5055772;28;20061;-70
2022/12/20 07:43:33;;;;;;;7.28;2.40;;;;;;;8.36;100.00;97822.06;5057713;28;20417;-70
2022/12/20 07:46:02;;;;;;;4.97;1.85;;;;;;;8.24;100.00;97812.94;5052594;28;20168;-71
2022/12/20 07:48:30;;;;;;;4.43;2.30;;;;;;;8.26;100.00;97813.72;5055519;28;20052;-70
2022/12/20 07:51:09;;;;;;;5.60;2.08;;;;;;;8.43;100.00;97809.81;5050546;28;20079;-71
2022/12/20 07:53:42;;;;;;;4.60;2.05;;;;;;;8.40;100.00;97808.19;5055049;28;20049;-70
2022/12/20 07:56:11;;;;;;;5.65;2.00;;;;;;;8.39;100.00;97803.84;5051814;28;20561;-71
2022/12/20 07:58:40;;;;;;;7.18;2.45;;;;;;;8.31;100.00;97804.09;5053727;28;20526;-71
2022/12/20 08:01:09;;;;;;;5.63;2.10;;;;;;;8.48;100.00;97811.38;5052969;28;20048;-71
2022/12/20 08:03:41;;;;;;;4.38;2.03;;;;;;;8.38;100.00;97810.78;5039208;28;20049;-71
2022/12/20 08:06:09;;;;;;;5.07;2.17;;;;;;;8.53;100.00;97811.22;5054986;28;20077;-71
2022/12/20 08:08:42;;;;;;;4.40;1.83;;;;;;;8.63;100.00;97804.88;5054238;28;20128;-71
2022/12/20 08:11:11;;;;;;;3.63;1.63;;;;;;;8.75;100.00;97795.88;5039499;28;20466;-71
2022/12/20 08:13:40;;;;;;;5.28;2.17;;;;;;;8.88;100.00;97794.59;5054638;28;20131;-71
2022/12/20 08:16:13;;;;;;;8.38;2.00;;;;;;;8.98;100.00;97789.97;5054194;28;20052;-70
2022/12/20 08:18:41;;;;;;;4.72;1.67;;;;;;;8.99;100.00;97778.72;5056216;28;20107;-70
2022/12/20 08:21:11;;;;;;;3.97;1.80;;;;;;;9.01;100.00;97782.13;5053682;28;20076;-71
2022/12/20 08:23:39;;;;;;;6.18;2.10;;;;;;;9.09;100.00;97763.72;5055495;28;20062;-70
2022/12/20 08:26:06;;;;;;;7.90;1.90;;;;;;;9.19;100.00;97762.50;5058563;28;20045;-71
2022/12/20 08:28:37;;;;;;;2.80;1.42;;;;;;;9.23;100.00;97779.63;5056325;28;20151;-71
2022/12/20 08:31:07;;;;;;;4.60;1.73;;;;;;;9.48;100.00;97771.88;5056404;28;20747;-71
2022/12/20 08:33:36;;;;;;;5.53;1.90;;;10.20;99.90;;;9.54;100.00;97766.47;5056677;28;20079;-70
2022/12/20 08:36:06;;;;;;;3.65;1.85;;;;;;;9.53;100.00;97769.09;5017349;28;20502;-70
2022/12/20 08:38:34;;;;;;;4.05;1.40;;;;;;;9.59;100.00;97758.53;5016784;28;20068;-71
2022/12/20 08:41:07;;;;;;;5.05;1.63;;;;;;;9.57;100.00;97747.38;5017813;28;20136;-70
2022/12/20 08:43:34;;;;;;;5.95;1.63;;;10.40;99.90;;;9.55;100.00;97752.59;5034628;28;20060;-71
2022/12/20 08:46:02;;;;;;;5.72;1.92;;;;;;;9.64;100.00;97764.38;5019015;28;20079;-70
2022/12/20 08:48:31;;;;;;;4.47;1.63;;;;;;;9.80;100.00;97751.72;5002987;28;20053;-71
2022/12/20 08:51:00;;;;;;;5.80;1.50;;;;;;;9.74;100.00;97754.53;5019497;28;20063;-70
2022/12/20 08:53:31;;;;;;;3.03;1.20;;;;;;;9.96;100.00;97747.66;5018295;28;20603;-70
2022/12/20 08:56:10;;;;;;;3.65;1.20;;;;;;;10.11;100.00;97748.00;5019723;28;20534;-70
2022/12/20 08:58:43;;;;;;;3.85;1.20;;;;;;;10.14;100.00;97727.13;5019001;28;20140;-70
2022/12/20 09:01:17;;;;;;;3.28;1.15;;;;;;;10.37;100.00;97728.84;5019468;28;20045;-70
2022/12/20 09:03:46;;;;;;;6.47;1.40;;;;;;;10.44;100.00;97731.13;5015560;28;20140;-71
2022/12/20 09:06:16;;;;;;;4.00;1.30;;;;;;;10.41;100.00;97727.84;5006283;28;20507;-70
2022/12/20 09:08:44;;;;;;;3.63;1.40;;;;;;;10.39;100.00;97730.47;5018637;28;20075;-70
2022/12/20 09:11:18;;;;;;;4.15;1.15;;;;;;;10.59;100.00;97728.84;5018935;28;20064;-71
2022/12/20 09:13:48;;;;;;;4.95;1.45;;;;;;;10.60;100.00;97722.75;5016154;28;20072;-71
2022/12/20 09:16:18;;;;;;;5.28;1.25;;;;;;;10.56;100.00;97715.97;5018210;28;20132;-70
2022/12/20 09:18:55;;;;;;;3.92;1.20;;;;;;;10.65;100.00;97702.63;5016844;28;20048;-71
2022/12/20 09:21:31;;;;;;;3.58;0.98;;;;;;;10.75;100.00;97714.34;5017885;28;20135;-70
2022/12/20 09:23:59;;;;;;;3.88;1.48;;;;;;;10.91;100.00;97714.56;5018199;28;20054;-70
2022/12/20 09:26:26;;;;;;;2.45;1.00;;;;;;;10.86;100.00;97706.13;5016190;28;20115;-70
2022/12/20 09:28:54;;;;;;;4.32;1.30;;;;;;;10.91;100.00;97695.53;5016626;28;20058;-71
2022/12/20 09:31:24;;;;;;;5.47;1.30;;;;;;;10.84;100.00;97698.38;5015663;28;20709;-70
2022/12/20 09:33:57;;;;;;;3.17;1.05;;;;;;;10.85;100.00;97691.44;5020673;28;20598;-70
2022/12/20 09:36:26;;;;;;;3.30;1.10;;;;;;;10.81;100.00;97697.66;5017070;28;20060;-71
2022/12/20 09:38:54;;;;;;;3.72;1.35;;;;;;;10.74;100.00;97697.09;5015919;28;20602;-70
2022/12/20 09:41:28;;;;;;;5.82;1.50;;;;;;;10.75;100.00;97693.56;5023849;28;20053;-70
2022/12/20 09:43:58;;;;;;;4.80;1.27;;;11.70;99.90;;;10.66;100.00;97710.38;5018365;28;20080;-71
2022/12/20 09:46:26;;;;;;;6.50;1.42;;;;;;;10.76;100.00;97708.22;5017452;28;20061;-71
2022/12/20 09:48:53;;;;;;;4.13;1.20;;;11.70;99.90;;;10.88;100.00;97714.69;5015021;28;20136;-70
2022/12/20 09:51:20;;;;;;;6.13;1.30;;;11.90;99.90;;;10.78;100.00;97716.81;5015098;28;20176;-71
2022/12/20 09:54:21;;;;;;;4.40;1.40;;;12.00;99.90;;;10.92;100.00;97718.00;5017062;28;20065;-71
2022/12/20 09:57:08;;;;;;;2.78;1.00;;;12.10;99.90;;;10.91;100.00;97717.16;5020486;28;20053;-71
2022/12/20 09:59:38;;;;;;;3.58;1.33;;;12.10;99.90;;;10.88;100.00;97712.94;5032905;28;20148;-71
2022/12/20 10:02:20;;;;;;;3.72;1.63;;;12.10;99.90;;;10.97;100.00;97706.50;5021565;28;20152;-71
2022/12/20 10:05:50;;;;;;;3.63;1.30;;;12.10;99.90;;;10.86;100.00;97699.16;5021571;28;20141;-71
2022/12/20 10:08:52;;;;;;;7.03;1.90;;;12.10;99.90;;;10.99;100.00;97693.44;5016844;28;20045;-71
2022/12/20 10:11:38;;;;;;;7.38;1.42;;;12.00;99.90;;;10.88;100.00;97702.53;5018272;28;20141;-71
2022/12/20 10:14:56;;;;;;;2.72;1.35;;;12.00;99.90;;;10.85;100.00;97697.47;5023047;28;20464;-71
2022/12/20 10:18:18;;;;;;;2.53;1.00;;;12.10;99.90;;;10.94;100.00;97696.22;5021141;28;20051;-70
2022/12/20 10:21:00;;;;;;;3.55;1.55;;;12.10;99.90;;;10.98;100.00;97692.59;5009757;28;20045;-70
2022/12/20 10:23:38;;;;;;;2.75;1.20;;;12.10;99.90;;;11.05;100.00;97681.03;5012755;28;20058;-70
2022/12/20 10:26:10;;;;;;;4.57;1.50;;;12.20;99.90;;;11.09;100.00;97680.00;5021543;28;20055;-71
2022/12/20 10:28:38;;;;;;;2.92;1.30;;;12.20;99.90;;;11.14;100.00;97678.97;5017511;28;20061;-71
2022/12/20 10:31:12;;;;;;;4.30;1.20;;;12.20;99.90;;;11.03;100.00;97669.88;5017122;28;20096;-70
2022/12/20 10:33:40;;;;;;;6.13;1.42;;;12.20;99.90;;;11.03;100.00;97674.22;5022411;28;20054;-71
2022/12/20 10:36:37;;;;;;;3.97;1.27;;;12.20;99.90;;;11.12;100.00;97667.78;5015222;28;20145;-71
2022/12/20 10:39:09;;;;;;;4.47;1.40;;;12.20;99.90;;;11.12;100.00;97671.22;5012521;28;20049;-71
2022/12/20 10:41:41;;;;;;;3.80;1.63;;;12.20;99.90;;;11.12;100.00;97673.81;5018568;28;20049;-71
2022/12/20 10:44:22;;;;;;;5.13;1.40;;;12.30;99.90;;;11.32;100.00;97662.56;5014833;28;20042;-71
2022/12/20 10:46:53;;;;;;;3.92;1.33;;;12.50;99.90;;;11.43;100.00;97659.50;5017133;28;20049;-71
2022/12/20 10:49:32;;;;;;;3.50;1.20;;;12.50;99.90;;;11.35;100.00;97653.78;5018714;28;20050;-71
2022/12/20 10:52:06;;;;;;;2.55;1.17;;;12.50;99.90;;;11.30;100.00;97657.44;5016624;28;20224;-71
2022/12/20 10:54:39;;;;;;;4.15;1.20;;;12.50;99.90;;;11.18;100.00;97647.59;5014673;28;20132;-70
2022/12/20 10:57:21;;;;;;;4.75;1.10;;;12.50;99.90;;;11.31;100.00;97637.47;5019880;28;20054;-71
2022/12/20 10:59:54;;;;;;;2.25;1.05;;;12.50;99.90;;;11.22;100.00;97633.56;5015706;28;20825;-71
2022/12/20 11:02:37;;;;;;;4.85;1.55;;;12.50;99.90;;;11.29;100.00;97627.19;5020061;28;20045;-71
2022/12/20 11:05:11;;;;;;;6.55;1.50;;;12.40;99.90;;;11.17;100.00;97625.09;5011157;28;20128;-71
2022/12/20 11:07:55;;;;;;;5.72;1.60;;;12.30;99.90;;;11.11;100.00;97628.00;5014820;28;20063;-70
2022/12/20 11:10:44;;;;;;;5.18;1.70;;;12.20;99.90;;;11.08;100.00;97628.09;5011778;28;20082;-71
2022/12/20 11:13:25;;;;;;;4.07;1.25;;;12.10;99.90;;;11.00;100.00;97615.47;5030082;28;20693;-70
2022/12/20 11:15:55;;;;;;;4.13;1.42;;;12.00;99.90;;;11.05;100.00;97615.25;5013321;28;20057;-71
2022/12/20 11:18:55;;;;;;;6.50;1.40;;;12.00;99.90;;;10.98;100.00;97622.47;5019538;28;20458;-71
2022/12/20 11:21:43;;;;;;;6.72;1.48;;;12.00;99.90;;;10.97;100.00;97609.53;5008498;28;20050;-70
2022/12/20 11:24:36;;;;;;;4.90;1.50;;;12.00;99.90;;;11.11;100.00;97607.22;5018034;28;20057;-71
2022/12/20 11:27:15;;;;;;;4.88;1.30;;;12.10;99.90;;;11.16;100.00;97609.59;5016687;28;20061;-70
2022/12/20 11:29:59;;;;;;;4.65;1.40;;;12.10;99.90;;;11.21;100.00;97598.09;5016483;28;20064;-71
2022/12/20 11:33:03;;;;;;;3.22;1.20;;;12.20;99.90;;;11.09;100.00;97591.69;5015347;28;20065;-70
2022/12/20 11:36:14;;;;;;;4.90;1.88;;;12.20;99.90;;;11.03;100.00;97604.94;5015191;28;20073;-71
2022/12/20 11:39:15;;;;;;;4.25;1.08;;;12.30;99.90;;;11.09;100.00;97599.47;4990661;28;20057;-71
2022/12/20 11:42:05;;;;;;;4.78;1.50;;;12.30;99.90;;;11.19;100.00;97601.66;5013949;28;20168;-70
2022/12/20 11:45:04;;;;;;;3.50;1.52;;;12.30;99.90;;;11.33;100.00;97603.63;5015622;28;20519;-70
2022/12/20 11:48:01;;;;;;;3.95;1.58;;;12.40;99.90;;;11.38;100.00;97594.75;5019983;28;20052;-70
2022/12/20 11:51:01;;;;;;;3.63;1.37;;;12.50;99.90;;;11.34;100.00;97590.59;5019532;28;20057;-70
2022/12/20 11:53:41;;;;;;;5.13;1.50;;;12.50;99.90;;;11.27;100.00;97599.56;5019657;28;20384;-70